Time;durP1;ratioP1;P1;durP2;ratioP2;P2;SDS_P1;SDS_P2;PMS_P1;PMS_P2;Temp;Humidity;BMP_temperature;BMP_pressure;BME280_temperature;BME280_humidity;BME280_pressure;Samples;Min_cycle;Max_cycle;Signal;HPM_P1;HPM_P2
2022/01/20 00:01:39;;;;;;;3.40;0.55;;;;;;;-2.28;100.00;102427.75;5036038;28;20049;-49
2022/01/20 00:04:14;;;;;;;2.95;0.38;;;;;;;-2.24;100.00;102420.69;5039389;28;20025;-50
2022/01/20 00:25:47;;;;;;;;;;;;;;;-2.46;100.00;102431.06;5009840;28;20037;-49
2022/01/20 00:26:06;;;;;;;11.10;1.70;;;;;;;-2.50;100.00;102425.16;5030891;28;19961;-47
2022/01/20 00:38:34;;;;;;;2.45;0.77;;;;;;;-2.63;100.00;102435.16;5036973;28;20042;-49
2022/01/20 00:41:00;;;;;;;4.43;1.08;;;;;;;-2.58;100.00;102441.91;5041182;28;20338;-49
2022/01/20 00:43:26;;;;;;;3.20;0.93;;;;;;;-2.55;100.00;102434.88;5038048;28;20122;-51
2022/01/20 00:45:52;;;;;;;2.80;0.40;;;;;;;-2.59;100.00;102441.06;5035079;28;20041;-47
2022/01/20 00:48:18;;;;;;;3.65;1.00;;;;;;;-2.60;100.00;102434.19;5041177;28;20102;-48
2022/01/20 00:50:44;;;;;;;10.98;0.90;;;;;;;-2.68;100.00;102429.28;5032928;28;20033;-48
2022/01/20 00:53:09;;;;;;;3.58;0.80;;;;;;;-2.70;100.00;102441.47;5037778;28;20033;-50
2022/01/20 00:55:34;;;;;;;2.67;0.60;;;;;;;-2.81;100.00;102430.66;5035658;28;20076;-49
2022/01/20 00:58:00;;;;;;;9.73;1.40;;;;;;;-2.89;100.00;102430.06;5041819;28;20037;-50
2022/01/20 01:00:25;;;;;;;5.30;1.10;;;;;;;-2.92;100.00;102438.84;5035109;28;20033;-49
2022/01/20 01:02:51;;;;;;;3.13;1.80;;;;;;;-2.87;100.00;102436.91;5033997;28;20384;-50
2022/01/20 01:05:16;;;;;;;10.75;1.23;;;;;;;-2.84;100.00;102438.53;5036252;28;20081;-49
2022/01/20 01:07:47;;;;;;;8.05;1.55;;;;;;;-2.75;100.00;102440.81;5038070;28;20082;-47
2022/01/20 01:10:26;;;;;;;4.55;1.73;;;;;;;-2.69;100.00;102440.56;5032500;28;20041;-50
2022/01/20 01:13:00;;;;;;;3.45;3.05;;;;;;;-2.78;100.00;102438.31;5033323;28;20136;-50
2022/01/20 01:15:33;;;;;;;4.80;1.23;;;;;;;-2.77;100.00;102444.34;5018934;28;20029;-49
2022/01/20 01:23:21;;;;;;;7.57;2.45;;;;;;;-2.93;100.00;102457.06;5044866;28;20398;-50
2022/01/20 01:25:47;;;;;;;2.83;0.88;;;;;;;-2.98;100.00;102456.38;5043670;28;20033;-49
2022/01/20 01:28:12;;;;;;;4.10;2.28;;;;;;;-3.02;100.00;102453.06;5037357;28;20482;-47
2022/01/20 01:33:05;;;;;;;0.88;0.30;;;;;;;-3.11;100.00;102459.41;5034344;28;20029;-53
2022/01/20 01:35:33;;;;;;;4.47;1.70;;;;;;;-3.17;100.00;102467.41;5042432;28;20036;-49
2022/01/20 01:40:32;;;;;;;2.78;0.85;;;;;;;-3.10;100.00;102462.84;5041459;28;20040;-48
2022/01/20 01:43:02;;;;;;;6.20;0.90;;;;;;;-3.04;100.00;102454.84;5045175;28;20041;-51
2022/01/20 01:45:33;;;;;;;0.73;0.20;;;;;;;-3.06;100.00;102461.84;5050322;28;20060;-54
2022/01/20 01:48:00;;;;;;;6.82;1.25;;;;;;;-3.09;100.00;102468.00;5043545;28;20037;-51
2022/01/20 01:50:26;;;;;;;7.15;0.88;;;;;;;-3.07;100.00;102471.38;5044530;28;20087;-49
2022/01/20 01:52:54;;;;;;;5.55;1.63;;;;;;;-3.08;100.00;102474.03;5047618;28;20025;-53
2022/01/20 01:55:21;;;;;;;9.15;2.67;;;;;;;-3.07;100.00;102473.13;5050302;28;20082;-49
2022/01/20 01:57:47;;;;;;;4.15;0.60;;;;;;;-3.09;100.00;102477.53;5043998;28;20430;-47
2022/01/20 02:00:14;;;;;;;9.52;0.77;;;;;;;-3.06;100.00;102482.59;5047402;28;20072;-48
2022/01/20 02:02:42;;;;;;;4.03;0.45;;;;;;;-3.06;100.00;102485.19;5048762;28;20111;-49
2022/01/20 02:05:10;;;;;;;5.63;0.30;;;;;;;-3.04;100.00;102488.59;5051306;28;20028;-51
2022/01/20 02:18:36;;;;;;;4.05;1.00;;;;;;;-2.91;100.00;102476.88;5046493;28;20036;-47
2022/01/20 02:21:03;;;;;;;4.13;0.70;;;;;;;-3.01;100.00;102483.28;5048518;28;20090;-48
2022/01/20 02:23:28;;;;;;;0.65;0.43;;;;;;;-3.03;100.00;102484.25;5049509;28;20410;-52
2022/01/20 02:25:54;;;;;;;4.00;0.98;;;;;;;-3.05;100.00;102486.03;5032166;28;20055;-51
2022/01/20 02:28:19;;;;;;;0.63;0.20;;;;;;;-3.09;100.00;102488.75;5040932;28;20032;-48
2022/01/20 02:30:45;;;;;;;3.42;0.80;;;;;;;-3.12;100.00;102486.25;5050850;28;20090;-50
2022/01/20 02:33:19;;;;;;;5.75;0.60;;;;;;;-3.12;100.00;102482.84;5042027;28;20485;-51
2022/01/20 02:35:51;;;;;;;1.70;0.68;;;;;;;-3.15;100.00;102488.97;5049836;28;20037;-51
2022/01/20 02:46:08;;;;;;;3.83;0.68;;;;;;;-3.03;100.00;102499.81;5045275;28;20162;-53
2022/01/20 02:48:35;;;;;;;7.07;1.45;;;;;;;-3.05;100.00;102499.84;5042843;28;20040;-52
2022/01/20 02:51:01;;;;;;;3.35;0.57;;;;;;;-3.10;100.00;102513.03;5049183;28;20055;-48
2022/01/20 02:53:27;;;;;;;5.97;0.90;;;;;;;-3.09;100.00;102513.88;5050618;28;20482;-49
2022/01/20 02:55:52;;;;;;;6.15;0.50;;;;;;;-3.15;100.00;102517.53;5045728;28;20029;-52
2022/01/20 02:58:18;;;;;;;4.50;0.95;;;;;;;-3.16;100.00;102509.78;5046610;28;20453;-53
2022/01/20 03:00:45;;;;;;;3.20;0.73;;;;;;;-3.14;100.00;102518.34;5043065;28;20049;-50
2022/01/20 03:03:10;;;;;;;6.47;0.40;;;;;;;-3.18;100.00;102519.34;5044107;28;20044;-49
2022/01/20 03:05:36;;;;;;;2.75;1.02;;;;;;;-3.17;100.00;102516.72;5035053;28;20033;-51
2022/01/20 03:08:01;;;;;;;6.82;1.13;;;;;;;-3.19;100.00;102517.66;5039768;28;20028;-49
2022/01/20 03:10:28;;;;;;;4.78;1.85;;;;;;;-3.27;100.00;102510.16;5043114;28;20340;-50
2022/01/20 03:12:53;;;;;;;3.17;0.80;;;;;;;-3.34;100.00;102508.66;5035450;28;20036;-47
2022/01/20 03:15:19;;;;;;;6.40;0.73;;;;;;;-3.31;100.00;102504.19;5047056;28;20029;-52
2022/01/20 03:17:44;;;;;;;8.77;2.45;;;;;;;-3.23;100.00;102506.53;5043129;28;20036;-49
2022/01/20 03:20:10;;;;;;;9.35;1.02;;;;;;;-3.24;100.00;102509.19;5044211;28;20067;-48
2022/01/20 03:22:35;;;;;;;4.20;1.20;;;;;;;-3.25;100.00;102502.28;5022015;28;20048;-50
2022/01/20 03:25:01;;;;;;;0.88;0.50;;;;;;;-3.27;100.00;102520.53;5035550;28;20055;-48
2022/01/20 03:27:26;;;;;;;6.63;0.75;;;;;;;-3.21;100.00;102540.22;5040296;28;20284;-51
2022/01/20 03:29:52;;;;;;;8.00;0.90;;;;;;;-3.26;100.00;102547.31;5036335;28;20128;-51
2022/01/20 03:32:17;;;;;;;6.53;0.40;;;;;;;-3.34;100.00;102556.19;5039173;28;20037;-50
2022/01/20 03:34:43;;;;;;;2.60;0.30;;;;;;;-3.44;100.00;102547.00;5044267;28;20060;-49
2022/01/20 03:37:08;;;;;;;3.38;0.93;;;;;;;-3.48;100.00;102548.03;5041256;28;20075;-48
2022/01/20 03:39:34;;;;;;;5.32;0.68;;;;;;;-3.38;100.00;102549.41;5044973;28;20025;-52
2022/01/20 03:41:59;;;;;;;2.58;0.88;;;;;;;-3.37;100.00;102545.91;5043701;28;20036;-50
2022/01/20 03:44:25;;;;;;;1.67;0.75;;;;;;;-3.39;100.00;102537.31;5040458;28;20504;-48
2022/01/20 03:46:50;;;;;;;1.90;0.50;;;;;;;-3.41;100.00;102540.88;5045722;28;20131;-51
2022/01/20 03:49:39;;;;;;;4.93;0.68;;;;;;;-3.47;100.00;102548.88;5042535;28;20037;-50
2022/01/20 03:52:06;;;;;;;1.42;0.47;;;;;;;-3.53;100.00;102549.91;5038883;28;20045;-51
2022/01/20 03:54:31;;;;;;;0.95;0.60;;;;;;;-3.53;100.00;102555.09;5045755;28;20025;-49
2022/01/20 03:56:57;;;;;;;0.98;0.80;;;;;;;-3.58;100.00;102551.81;5036876;28;20498;-50
2022/01/20 03:59:22;;;;;;;3.53;0.65;;;;;;;-3.63;100.00;102543.31;5045887;28;20060;-47
2022/01/20 04:01:50;;;;;;;13.88;3.53;;;;;;;-3.61;100.00;102554.50;5045543;28;20036;-51
2022/01/20 04:04:16;;;;;;;2.38;0.65;;;;;;;-3.66;100.00;102553.81;5046193;28;20386;-52
2022/01/20 04:06:41;;;;;;;3.03;0.45;;;;;;;-3.66;100.00;102551.22;5042906;28;20036;-50
2022/01/20 04:09:06;;;;;;;2.60;0.77;;;;;;;-3.71;100.00;102566.06;5038011;28;20051;-49
2022/01/20 04:11:32;;;;;;;7.07;1.50;;;;;;;-3.78;100.00;102567.97;5031142;28;20036;-49
2022/01/20 04:13:58;;;;;;;4.03;0.50;;;;;;;-3.83;100.00;102568.13;5036406;28;20029;-51
2022/01/20 04:16:36;;;;;;;4.90;1.52;;;;;;;-3.83;100.00;102567.28;5041136;28;20501;-53
2022/01/20 04:19:07;;;;;;;7.80;1.17;;;;;;;-3.79;100.00;102568.88;5044969;28;20465;-49
2022/01/20 04:21:34;;;;;;;7.30;0.95;;;;;;;-3.81;100.00;102571.50;5045044;28;20036;-51
2022/01/20 04:24:01;;;;;;;2.40;0.47;;;;;;;-3.85;100.00;102566.47;5037666;28;20453;-47
2022/01/20 04:26:28;;;;;;;5.47;1.65;;;;;;;-3.84;100.00;102563.84;5037581;28;20044;-50
2022/01/20 04:28:55;;;;;;;1.75;0.50;;;;;;;-3.86;100.00;102559.59;5039372;28;20500;-49
2022/01/20 04:31:22;;;;;;;5.18;0.77;;;;;;;-3.90;100.00;102564.00;5046239;28;20036;-49
2022/01/20 04:33:47;;;;;;;4.95;0.60;;;;;;;-3.98;100.00;102560.81;5044506;28;20037;-50
2022/01/20 04:36:13;;;;;;;1.73;0.82;;;;;;;-3.98;100.00;102571.16;5040351;28;20037;-47
2022/01/20 04:38:38;;;;;;;1.30;0.32;;;;;;;-4.00;100.00;102580.72;5042033;28;20033;-50
2022/01/20 04:41:04;;;;;;;4.10;1.15;;;;;;;-3.99;100.00;102569.50;5027139;28;20695;-53
2022/01/20 04:43:30;;;;;;;8.68;0.93;;;;;;;-3.98;100.00;102573.75;5033275;28;20448;-51
2022/01/20 04:46:13;;;;;;;6.05;0.60;;;;;;;-3.97;100.00;102576.31;5045258;28;20045;-53
2022/01/20 04:59:22;;;;;;;0.35;0.35;;;;;;;-4.03;100.00;102592.03;5043359;28;20079;-52
2022/01/20 05:01:47;;;;;;;2.28;0.77;;;;;;;-4.06;100.00;102586.09;5040959;28;20123;-49
2022/01/20 05:04:13;;;;;;;0.90;0.43;;;;;;;-4.12;100.00;102586.28;5034444;28;20405;-50
2022/01/20 05:06:41;;;;;;;8.25;0.98;;;;;;;-4.19;100.00;102588.19;5040730;28;20037;-52
2022/01/20 05:09:07;;;;;;;7.57;1.30;;;;;;;-4.20;100.00;102602.06;5042379;28;20120;-50
2022/01/20 05:11:35;;;;;;;7.03;0.65;;;;;;;-4.18;100.00;102602.88;5041570;28;20112;-49
2022/01/20 05:14:01;;;;;;;3.63;0.68;;;;;;;-4.05;100.00;102619.75;5037889;28;20037;-47
2022/01/20 05:16:26;;;;;;;2.50;0.82;;;;;;;-4.00;100.00;102629.97;5036633;28;20029;-47
2022/01/20 05:18:51;;;;;;;5.43;0.70;;;;;;;-4.09;100.00;102628.50;5041128;28;20036;-48
2022/01/20 05:21:17;;;;;;;4.00;0.60;;;;;;;-4.08;100.00;102629.34;5042486;28;20163;-46
2022/01/20 05:23:42;;;;;;;6.38;1.60;;;;;;;-4.00;100.00;102635.16;5038294;28;20104;-50
2022/01/20 05:26:08;;;;;;;5.43;1.05;;;;;;;-4.01;100.00;102636.06;5041693;28;20111;-50
2022/01/20 05:28:33;;;;;;;7.45;0.80;;;;;;;-4.02;100.00;102637.81;5039410;28;20446;-47
2022/01/20 05:30:59;;;;;;;3.80;1.23;;;;;;;-4.05;100.00;102627.53;5045288;28;20132;-49
2022/01/20 05:33:25;;;;;;;5.18;0.77;;;;;;;-4.03;100.00;102617.09;5042851;28;20078;-53
2022/01/20 05:35:51;;;;;;;1.17;0.63;;;;;;;-4.00;100.00;102622.19;5041607;28;20539;-47
2022/01/20 05:38:16;;;;;;;8.48;1.08;;;;;;;-4.02;100.00;102640.41;5033549;28;20033;-48
2022/01/20 05:40:42;;;;;;;4.60;0.60;;;;;;;-4.03;100.00;102638.69;5034550;28;20037;-50
2022/01/20 05:43:07;;;;;;;2.53;0.47;;;;;;;-4.06;100.00;102636.19;5033809;28;20810;-50
2022/01/20 05:45:33;;;;;;;1.73;0.22;;;;;;;-4.05;100.00;102645.66;5037442;28;20055;-48
2022/01/20 05:48:08;;;;;;;2.88;0.82;;;;;;;-4.07;100.00;102642.28;5034794;28;20077;-50
2022/01/20 05:50:34;;;;;;;10.80;1.30;;;;;;;-4.06;100.00;102646.53;5030113;28;20025;-48
2022/01/20 05:52:59;;;;;;;1.13;0.55;;;;;;;-4.10;100.00;102641.53;5031869;28;20387;-47
2022/01/20 05:55:25;;;;;;;10.52;2.25;;;;;;;-4.06;100.00;102645.69;5033498;28;20545;-53
2022/01/20 05:57:50;;;;;;;6.47;1.17;;;;;;;-4.04;100.00;102646.50;5027504;28;20510;-52
2022/01/20 06:00:22;;;;;;;6.40;1.20;;;;;;;-4.07;100.00;102642.28;5038761;28;20258;-51
2022/01/20 06:05:32;;;;;;;11.50;0.82;;;;;;;-4.14;100.00;102650.25;5034443;28;20103;-49
2022/01/20 06:07:58;;;;;;;2.45;0.88;;;;;;;-4.14;100.00;102640.72;5035674;28;20079;-49
2022/01/20 06:10:23;;;;;;;0.75;0.60;;;;;;;-4.15;100.00;102640.78;5032837;28;20033;-47
2022/01/20 06:12:49;;;;;;;8.38;0.65;;;;;;;-4.19;100.00;102638.28;5032913;28;20512;-48
2022/01/20 06:15:14;;;;;;;3.78;0.65;;;;;;;-4.17;100.00;102646.84;5034712;28;20040;-50
2022/01/20 06:17:41;;;;;;;6.53;0.40;;;;;;;-4.17;100.00;102649.44;5037434;28;20033;-49
2022/01/20 06:20:08;;;;;;;2.83;0.85;;;;;;;-4.13;100.00;102646.75;5031383;28;20082;-49
2022/01/20 06:22:33;;;;;;;3.15;0.60;;;;;;;-4.21;100.00;102645.25;5036316;28;20523;-49
2022/01/20 06:24:58;;;;;;;3.38;0.47;;;;;;;-4.18;100.00;102657.28;5035104;28;20045;-51
2022/01/20 06:27:24;;;;;;;5.85;0.88;;;;;;;-4.17;100.00;102657.22;5029400;28;20121;-52
2022/01/20 06:29:49;;;;;;;11.15;1.85;;;;;;;-4.27;100.00;102667.88;5034828;28;20128;-51
2022/01/20 06:32:14;;;;;;;4.18;1.15;;;;;;;-4.29;100.00;102670.50;5046021;28;20041;-47
2022/01/20 06:34:40;;;;;;;3.15;1.05;;;;;;;-4.28;100.00;102664.44;5040753;28;20057;-51
2022/01/20 06:37:05;;;;;;;4.43;0.98;;;;;;;-4.33;100.00;102674.09;5041521;28;20504;-47
2022/01/20 06:39:31;;;;;;;9.45;1.77;;;;;;;-4.31;100.00;102674.91;5034651;28;20440;-52
2022/01/20 06:41:56;;;;;;;8.65;1.40;;;;;;;-4.44;100.00;102673.50;5039291;28;20110;-50
2022/01/20 06:44:22;;;;;;;4.40;1.13;;;;;;;-4.53;100.00;102677.19;5036404;28;20423;-50
2022/01/20 06:46:51;;;;;;;10.00;1.48;;;;;;;-4.53;100.00;102663.41;5039680;28;20103;-49
2022/01/20 06:49:18;;;;;;;6.05;1.23;;;;;;;-4.57;100.00;102666.94;5041112;28;20036;-52
2022/01/20 06:51:47;;;;;;;3.88;0.80;;;;;;;-4.55;100.00;102675.53;5035253;28;20040;-48
2022/01/20 06:54:13;;;;;;;2.72;1.27;;;;;;;-4.54;100.00;102687.56;5041263;28;20045;-48
2022/01/20 06:56:41;;;;;;;10.50;1.92;;;;;;;-4.42;100.00;102687.25;5037004;28;20043;-52
2022/01/20 06:59:08;;;;;;;10.02;1.50;;;;;;;-4.39;100.00;102706.19;5039343;28;20029;-52
2022/01/20 07:01:34;;;;;;;1.88;1.48;;;;;;;-4.39;100.00;102698.41;5032563;28;20056;-51
2022/01/20 07:03:59;;;;;;;3.92;1.10;;;;;;;-4.39;100.00;102703.59;5040037;28;20033;-50
2022/01/20 07:06:24;;;;;;;2.10;0.60;;;;;;;-4.38;100.00;102714.78;5040189;28;20091;-48
2022/01/20 07:08:50;;;;;;;7.28;0.98;;;;;;;-4.42;100.00;102710.56;5042500;28;20032;-51
2022/01/20 07:11:15;;;;;;;4.90;0.85;;;;;;;-4.47;100.00;102713.28;5042922;28;20037;-52
2022/01/20 07:13:40;;;;;;;2.45;0.77;;;;;;;-4.54;100.00;102719.53;5041870;28;20020;-50
2022/01/20 07:16:06;;;;;;;5.30;1.77;;;;;;;-4.60;100.00;102715.31;5036640;28;20704;-50
2022/01/20 07:18:31;;;;;;;7.03;1.35;;;;;;;-4.67;100.00;102716.38;5037090;28;20129;-48
2022/01/20 07:20:56;;;;;;;6.07;1.48;;;;;;;-4.72;100.00;102713.06;5022508;28;20044;-50
2022/01/20 07:23:22;;;;;;;9.30;1.60;;;;;;;-4.76;100.00;102723.53;5038800;28;20033;-49
2022/01/20 07:25:47;;;;;;;2.80;1.25;;;;;;;-4.80;100.00;102727.94;5028391;28;20600;-53
2022/01/20 07:28:12;;;;;;;6.80;0.82;;;;;;;-4.70;100.00;102725.94;5041122;28;20032;-50
2022/01/20 07:30:39;;;;;;;1.85;1.00;;;;;;;-4.60;100.00;102730.84;5042380;28;20055;-49
2022/01/20 07:33:05;;;;;;;7.70;1.02;;;;;;;-4.51;100.00;102736.72;5039995;28;20036;-51
2022/01/20 07:35:32;;;;;;;1.77;1.00;;;;;;;-4.48;100.00;102734.88;5041252;28;20106;-53
2022/01/20 07:37:58;;;;;;;3.30;0.73;;;;;;;-4.49;100.00;102733.19;5022186;28;20037;-52
2022/01/20 07:40:23;;;;;;;1.27;0.55;;;;;;;-4.54;100.00;102735.06;5039652;28;20033;-52
2022/01/20 07:42:48;;;;;;;1.73;0.52;;;;;;;-4.64;100.00;102733.59;5035048;28;20041;-50
2022/01/20 07:45:14;;;;;;;8.77;0.82;;;;;;;-4.72;100.00;102741.53;5034064;28;20104;-48
2022/01/20 07:47:39;;;;;;;2.30;0.55;;;;;;;-4.81;100.00;102741.75;5041553;28;20100;-51
2022/01/20 07:50:07;;;;;;;1.45;0.95;;;;;;;-4.86;100.00;102747.00;5043703;28;20402;-48
2022/01/20 07:52:32;;;;;;;2.83;0.35;;;;;;;-4.82;100.00;102753.84;5027450;28;20025;-53
2022/01/20 07:54:57;;;;;;;0.73;0.45;;;;;;;-4.85;100.00;102751.31;5033791;28;20489;-50
2022/01/20 07:57:23;;;;;;;2.75;0.88;;;;;;;-4.85;100.00;102760.84;5028847;28;20041;-52
2022/01/20 07:59:48;;;;;;;0.73;0.30;;;;;;;-4.86;100.00;102769.47;5031922;28;20112;-47
2022/01/20 08:02:16;;;;;;;2.25;0.95;;;;;;;-4.79;100.00;102762.41;5035276;28;20157;-51
2022/01/20 08:04:41;;;;;;;3.22;0.40;;;;;;;-4.78;100.00;102764.97;5036735;28;20106;-48
2022/01/20 08:07:07;;;;;;;4.25;1.33;;;;;;;-4.73;100.00;102781.22;5038625;28;20029;-48
2022/01/20 08:09:32;;;;;;;2.90;1.38;;;;;;;-4.71;100.00;102782.06;5035000;28;20086;-49
2022/01/20 08:11:57;;;;;;;4.30;1.48;;;;;;;-4.70;100.00;102780.31;5035435;28;20462;-53
2022/01/20 08:14:23;;;;;;;4.97;0.45;;;;;;;-4.70;100.00;102785.47;5039707;28;20556;-51
2022/01/20 08:16:48;;;;;;;3.30;0.88;;;;;;;-4.68;100.00;102781.13;5034406;28;20060;-51
2022/01/20 08:19:13;;;;;;;8.73;1.73;;;;;;;-4.67;100.00;102790.63;5040308;28;20033;-52
2022/01/20 08:21:39;;;;;;;1.55;1.17;;;;;;;-4.63;100.00;102793.06;5040301;28;20063;-52
2022/01/20 08:24:04;;;;;;;3.55;0.55;;;;;;;-4.64;100.00;102795.72;5043928;28;20041;-51
2022/01/20 08:26:30;;;;;;;8.73;0.60;;;;;;;-4.74;100.00;102794.22;5039151;28;20486;-47
2022/01/20 08:28:56;;;;;;;3.22;0.52;;;;;;;-4.78;100.00;102802.94;5035062;28;20405;-52
2022/01/20 08:31:21;;;;;;;8.93;0.80;;;;;;;-4.75;100.00;102808.91;5044562;28;20521;-48
2022/01/20 08:33:46;;;;;;;3.13;0.80;;;;;;;-4.74;100.00;102809.75;5046049;28;20128;-51
2022/01/20 08:36:12;;;;;;;2.30;0.47;;;;;;;-4.69;100.00;102815.69;5037273;28;20041;-53
2022/01/20 08:38:37;;;;;;;1.15;0.35;;;;;;;-4.58;100.00;102824.03;5038068;28;20029;-49
2022/01/20 08:41:02;;;;;;;2.28;0.57;;;;;;;-4.52;100.00;102817.84;5045191;28;20119;-49
2022/01/20 08:43:28;;;;;;;6.40;0.68;;;;;;;-4.51;100.00;102829.94;5036485;28;20028;-49
2022/01/20 08:45:53;;;;;;;5.35;0.70;;;;;;;-4.49;100.00;102830.72;5043663;28;20025;-51
2022/01/20 08:48:19;;;;;;;8.00;1.40;;;;;;;-4.48;100.00;102827.28;5033636;28;20533;-50
2022/01/20 08:50:44;;;;;;;2.03;0.30;;;;;;;-4.48;100.00;102837.63;5045562;28;20037;-49
2022/01/20 08:53:11;;;;;;;1.55;0.70;;;;;;;-4.51;100.00;102840.28;5037434;28;20383;-51
2022/01/20 08:55:37;;;;;;;2.38;1.13;;;;;;;-4.54;100.00;102841.22;5046534;28;20021;-49
2022/01/20 08:58:04;;;;;;;6.00;1.30;;;;;;;-4.34;100.00;102850.25;5035095;28;20052;-50
2022/01/20 09:00:31;;;;;;;7.93;2.38;;;;;;;-4.10;100.00;102848.81;5043138;28;20037;-48
2022/01/20 09:02:57;;;;;;;6.30;0.73;;;;;;;-3.96;100.00;102864.84;5045423;28;20036;-52
2022/01/20 09:05:23;;;;;;;3.45;0.60;;;;;;;-3.82;100.00;102860.19;5041880;28;20054;-52
2022/01/20 09:07:49;;;;;;;6.72;1.52;;;;;;;-3.80;100.00;102858.38;5035183;28;20029;-49
2022/01/20 09:10:19;;;;;;;3.10;0.60;;;;;;;-3.78;100.00;102859.19;5044075;28;20037;-49
2022/01/20 09:15:28;;;;;;;11.48;0.93;;;;;;;-3.57;100.00;102881.09;5045410;28;20044;-50
2022/01/20 09:18:02;;;;;;;2.33;1.95;;;;;;;-3.51;100.00;102877.53;5035606;28;20021;-54
2022/01/20 09:20:28;;;;;;;3.03;1.73;;;;;;;-3.54;100.00;102886.22;5037879;28;20135;-55
2022/01/20 09:22:55;;;;;;;1.75;0.22;;;;;;;-3.54;100.00;102882.75;5043734;28;20056;-52
2022/01/20 09:25:21;;;;;;;6.00;0.77;;;;;;;-3.46;100.00;102887.75;5030422;28;20037;-49
2022/01/20 09:27:47;;;;;;;7.22;0.93;;;;;;;-3.42;100.00;102886.78;5035670;28;20036;-50
2022/01/20 09:30:18;;;;;;;4.07;0.28;;;;;;;-3.32;100.00;102886.50;5044106;28;20029;-53
2022/01/20 09:32:46;;;;;;;8.50;1.02;;;;;;;-3.31;100.00;102893.38;5042484;28;20037;-53
2022/01/20 09:35:11;;;;;;;1.63;0.65;;;;;;;-3.09;100.00;102893.63;5028817;28;20454;-53
2022/01/20 09:37:39;;;;;;;4.50;1.38;;;;;;;-2.99;100.00;102895.97;5044995;28;20082;-54
2022/01/20 09:40:07;;;;;;;5.43;1.10;;;;;;;-2.80;100.00;102896.28;5042377;28;20118;-52
2022/01/20 09:42:33;;;;;;;7.85;1.98;;;;;;;-2.64;100.00;102897.50;5044955;28;20040;-52
2022/01/20 09:44:59;;;;;;;3.83;0.80;;;;;;;-2.50;100.00;102899.72;5043336;28;20402;-53
2022/01/20 09:47:24;;;;;;;6.22;0.75;;;;;;;-2.35;100.00;102903.56;5039504;28;20033;-48
2022/01/20 09:49:50;;;;;;;1.58;1.08;;;;;;;-2.25;100.00;102907.56;5041312;28;20039;-50
2022/01/20 09:52:15;;;;;;;6.75;0.93;;;;;;;-2.04;100.00;102906.91;5038807;28;20037;-50
2022/01/20 09:54:40;;;;;;;10.50;1.25;;;;;;;-1.71;100.00;102919.66;5031500;28;20034;-52
2022/01/20 09:57:06;;;;;;;6.40;1.30;;;;;;;-1.52;100.00;102919.03;5043092;28;20029;-51
2022/01/20 09:59:32;;;;;;;5.65;1.40;;;;;;;-1.26;100.00;102921.59;5036309;28;20084;-51
2022/01/20 10:01:58;;;;;;;2.70;1.15;;;;;;;-1.08;100.00;102924.41;5018703;28;20037;-51
2022/01/20 10:04:25;;;;;;;12.13;2.20;;;;;;;-0.94;100.00;102924.78;5040707;28;20078;-50
2022/01/20 10:07:08;;;;;;;4.28;0.65;;;;;;;-0.87;100.00;102915.84;5045210;28;20032;-49
2022/01/20 10:09:45;;;;;;;10.40;1.10;;;;;;;-0.69;100.00;102930.78;5044831;28;20033;-51
2022/01/20 10:12:14;;;;;;;5.68;1.00;;;;;;;-0.61;100.00;102932.25;5048445;28;20033;-51
2022/01/20 10:14:46;;;;;;;1.42;0.90;;;;;;;-0.50;100.00;102933.53;5042649;28;20064;-54
2022/01/20 10:17:17;;;;;;;5.15;2.03;;;;;;;-0.46;100.00;102942.09;5046176;28;20025;-53
2022/01/20 10:19:43;;;;;;;4.95;1.05;;;;;;;-0.35;100.00;102949.50;5039453;28;20037;-51
2022/01/20 10:22:17;;;;;;;5.03;1.00;;;;;;;-0.26;100.00;102955.22;5039831;28;20040;-50
2022/01/20 10:25:05;;;;;;;5.70;0.85;;;;;;;-0.26;100.00;102967.38;5045958;28;20037;-49
2022/01/20 10:27:33;;;;;;;3.47;1.20;;;;;;;-0.14;100.00;102960.84;5047904;28;20490;-54
2022/01/20 10:30:03;;;;;;;3.60;1.10;;;;;;;0.02;100.00;102964.53;5037883;28;20029;-48
2022/01/20 10:32:39;;;;;;;4.32;0.82;;;;;;;0.05;100.00;102956.56;5042841;28;20037;-53
2022/01/20 10:35:06;;;;;;;3.17;0.75;;;;;;;0.09;100.00;102960.75;5036277;28;20151;-54
2022/01/20 10:37:32;;;;;;;3.72;1.45;;;;;;;0.25;100.00;102965.34;5031815;28;20033;-49
2022/01/20 10:40:14;;;;;;;4.18;0.80;;;;;;;0.40;100.00;102968.16;5039891;28;20036;-50
2022/01/20 10:42:43;;;;;;;2.40;0.47;;;;;;;0.49;100.00;102971.31;5043977;28;20033;-47
2022/01/20 10:45:22;;;;;;;11.40;2.00;;;;;;;0.64;100.00;102976.72;5048237;28;20489;-47
2022/01/20 10:47:52;;;;;;;12.13;2.63;;;;;;;0.82;100.00;102987.31;5047980;28;20024;-50
2022/01/20 10:50:24;;;;;;;4.90;0.35;;;;;;;0.93;100.00;102987.72;5043315;28;20038;-52
2022/01/20 10:52:51;;;;;;;5.13;0.95;;;;;;;1.03;100.00;102985.50;5034323;28;20041;-48
2022/01/20 10:55:31;;;;;;;9.07;0.82;;;;;;;1.17;100.00;102990.16;5046100;28;20030;-53
2022/01/20 10:58:22;;;;;;;2.05;0.47;;;;;;;1.20;100.00;102996.06;5043876;28;20033;-51
2022/01/20 11:00:50;;;;;;;5.68;1.33;;;;;;;1.28;100.00;102991.34;5045158;28;20033;-49
2022/01/20 11:03:16;;;;;;;3.28;1.38;;;;;;;1.39;100.00;103003.09;5027408;28;20118;-54
2022/01/20 11:05:45;;;;;;;3.42;0.63;;;;;;;1.45;100.00;103016.75;5019498;28;20404;-52
2022/01/20 11:08:10;;;;;;;1.65;0.70;;;;;;;1.49;100.00;103009.59;5047476;28;20033;-56
2022/01/20 11:10:39;;;;;;;5.82;1.80;;;;;;;1.63;100.00;103006.38;5044381;28;20110;-54
2022/01/20 11:13:05;;;;;;;4.85;1.92;;;;;;;1.69;100.00;103008.69;5038566;28;20106;-51
2022/01/20 11:15:31;;;;;;;5.15;1.67;;;;;;;1.80;100.00;102998.56;5042283;28;20025;-51
2022/01/20 11:17:57;;;;;;;10.50;0.57;;;;;;;1.89;100.00;102997.28;5042491;28;20125;-51
2022/01/20 11:20:29;;;;;;;1.45;0.43;;;;;;;1.95;100.00;102997.00;5037321;28;20432;-51
2022/01/20 11:23:02;;;;;;;;;;;;;;;1.93;100.00;102978.72;5046504;28;20029;-55
2022/01/20 11:25:29;;;;;;;7.10;1.10;;;;;;;2.00;100.00;102975.84;5039437;28;19920;-54
2022/01/20 11:28:07;;;;;;;4.80;1.40;;;;;;;2.09;100.00;102959.69;5046095;28;20465;-52
2022/01/20 11:30:35;;;;;;;1.50;0.95;;;;;;;2.21;100.00;102964.31;5043934;28;20033;-54
2022/01/20 11:33:05;;;;;;;2.50;0.45;;;;;;;2.32;100.00;102972.50;5044057;28;20029;-53
2022/01/20 11:35:49;;;;;;;1.53;0.70;;;;;;;2.46;100.00;102978.81;5047372;28;20020;-51
2022/01/20 11:38:17;;;;;;;4.30;1.20;;;;;;;2.49;100.00;102957.72;5047122;28;20060;-49
2022/01/20 11:40:53;;;;;;;8.15;0.68;;;;;;;2.59;100.00;102957.16;5047140;28;20047;-51
2022/01/20 11:43:30;;;;;;;6.93;0.82;;;;;;;2.68;100.00;102961.06;5036814;28;20021;-53
2022/01/20 11:46:11;;;;;;;2.35;0.35;;;;;;;2.77;100.00;102937.03;5045415;28;20488;-54
2022/01/20 11:48:36;;;;;;;4.65;0.70;;;;;;;2.78;100.00;102922.97;5046567;28;20030;-55
2022/01/20 11:51:07;;;;;;;8.38;1.02;;;;;;;2.84;100.00;102930.53;5053755;28;20033;-51
2022/01/20 11:53:40;;;;;;;3.42;0.63;;;;;;;2.88;100.00;102917.28;5046915;28;20417;-51
2022/01/20 11:56:06;;;;;;;6.60;0.70;;;;;;;2.98;100.00;102924.56;5030554;28;20041;-54
2022/01/20 11:58:31;;;;;;;6.38;1.75;;;;;;;3.00;100.00;102908.78;5042060;28;20386;-52
2022/01/20 12:01:01;;;;;;;0.57;0.22;;;;;;;3.06;100.00;102908.44;5044592;28;20037;-53
2022/01/20 12:03:28;;;;;;;7.78;0.25;;;;;;;3.12;100.00;102909.88;5046227;28;20116;-52
2022/01/20 12:06:02;;;;;;;9.38;1.38;;;;;;;3.13;100.00;102908.94;5045837;28;20359;-52
2022/01/20 12:08:28;;;;;;;8.63;0.77;;;;;;;3.17;100.00;102905.22;5045525;28;20485;-50
2022/01/20 12:11:09;;;;;;;8.35;2.60;;;;;;;3.22;100.00;102909.28;5045502;28;20044;-53
2022/01/20 12:13:48;;;;;;;5.43;0.20;;;;;;;3.30;100.00;102916.72;5040909;28;20048;-53
2022/01/20 12:16:22;;;;;;;1.73;0.22;;;;;;;3.34;100.00;102907.78;5033448;28;20091;-55
2022/01/20 12:18:57;;;;;;;6.25;0.50;;;;;;;3.45;100.00;102913.25;5041545;28;20059;-56
2022/01/20 12:21:25;;;;;;;11.07;1.50;;;;;;;3.45;100.00;102915.88;5029600;28;20120;-53
2022/01/20 12:23:53;;;;;;;4.00;0.47;;;;;;;3.42;100.00;102913.44;5037516;28;20036;-54
2022/01/20 12:26:19;;;;;;;6.07;1.20;;;;;;;3.44;100.00;102905.50;5042253;28;20056;-54
2022/01/20 12:28:45;;;;;;;11.32;1.30;;;;;;;3.42;100.00;102902.09;5040467;28;20026;-55
2022/01/20 12:31:13;;;;;;;4.78;0.80;;;;;;;3.47;100.00;102911.41;5041553;28;20021;-51
2022/01/20 12:33:43;;;;;;;6.45;0.68;;;;;;;3.58;100.00;102908.19;5044802;28;20029;-52